sensor_id;sensor_type;location;lat;lon;timestamp;temperature;humidity
45044;DHT22;30784;48.490;9.688;2023-06-22T00:01:54;22.10;65.00
45044;DHT22;30784;48.490;9.688;2023-06-22T00:04:20;22.10;65.10
45044;DHT22;30784;48.490;9.688;2023-06-22T00:06:46;22.10;65.10
45044;DHT22;30784;48.490;9.688;2023-06-22T00:09:11;22.10;65.20
45044;DHT22;30784;48.490;9.688;2023-06-22T00:11:37;22.10;65.10
45044;DHT22;30784;48.490;9.688;2023-06-22T00:14:04;22.10;65.00
45044;DHT22;30784;48.490;9.688;2023-06-22T00:16:31;22.10;65.00
45044;DHT22;30784;48.490;9.688;2023-06-22T00:18:56;22.10;65.00
45044;DHT22;30784;48.490;9.688;2023-06-22T00:21:26;22.10;65.00
45044;DHT22;30784;48.490;9.688;2023-06-22T00:23:51;22.10;64.90
45044;DHT22;30784;48.490;9.688;2023-06-22T00:26:17;22.10;64.80
45044;DHT22;30784;48.490;9.688;2023-06-22T00:28:42;22.10;64.80
45044;DHT22;30784;48.490;9.688;2023-06-22T00:31:08;22.10;64.70
45044;DHT22;30784;48.490;9.688;2023-06-22T00:33:33;22.20;64.70
45044;DHT22;30784;48.490;9.688;2023-06-22T00:35:59;22.20;64.60
45044;DHT22;30784;48.490;9.688;2023-06-22T00:38:25;22.20;64.40
45044;DHT22;30784;48.490;9.688;2023-06-22T00:40:50;22.20;64.40
45044;DHT22;30784;48.490;9.688;2023-06-22T00:43:16;22.20;64.40
45044;DHT22;30784;48.490;9.688;2023-06-22T00:45:41;22.20;64.30
45044;DHT22;30784;48.490;9.688;2023-06-22T00:48:08;22.20;64.20
45044;DHT22;30784;48.490;9.688;2023-06-22T00:50:34;22.20;64.20
45044;DHT22;30784;48.490;9.688;2023-06-22T00:53:05;22.20;64.10
45044;DHT22;30784;48.490;9.688;2023-06-22T00:55:38;22.20;64.10
45044;DHT22;30784;48.490;9.688;2023-06-22T00:58:07;22.20;64.10
45044;DHT22;30784;48.490;9.688;2023-06-22T01:00:36;22.20;64.00
45044;DHT22;30784;48.490;9.688;2023-06-22T01:03:02;22.20;63.90
45044;DHT22;30784;48.490;9.688;2023-06-22T01:05:27;22.20;63.90
45044;DHT22;30784;48.490;9.688;2023-06-22T01:11:07;22.20;63.90
45044;DHT22;30784;48.490;9.688;2023-06-22T01:16:29;22.20;63.90
45044;DHT22;30784;48.490;9.688;2023-06-22T01:18:57;22.20;63.80
45044;DHT22;30784;48.490;9.688;2023-06-22T01:21:28;22.20;63.90
45044;DHT22;30784;48.490;9.688;2023-06-22T01:29:12;22.20;64.00
45044;DHT22;30784;48.490;9.688;2023-06-22T01:31:39;22.10;63.90
45044;DHT22;30784;48.490;9.688;2023-06-22T01:34:07;22.10;63.90
45044;DHT22;30784;48.490;9.688;2023-06-22T01:36:34;22.10;63.90
45044;DHT22;30784;48.490;9.688;2023-06-22T01:39:02;22.10;63.90
45044;DHT22;30784;48.490;9.688;2023-06-22T01:41:30;22.10;64.00
45044;DHT22;30784;48.490;9.688;2023-06-22T01:43:56;22.10;64.00
45044;DHT22;30784;48.490;9.688;2023-06-22T01:46:23;22.10;64.10
45044;DHT22;30784;48.490;9.688;2023-06-22T01:48:49;22.00;64.00
45044;DHT22;30784;48.490;9.688;2023-06-22T01:51:15;22.10;64.10
45044;DHT22;30784;48.490;9.688;2023-06-22T01:53:41;22.00;64.00
45044;DHT22;30784;48.490;9.688;2023-06-22T01:56:08;22.10;64.00
45044;DHT22;30784;48.490;9.688;2023-06-22T01:58:33;22.00;64.00
45044;DHT22;30784;48.490;9.688;2023-06-22T02:03:43;22.00;64.10
45044;DHT22;30784;48.490;9.688;2023-06-22T02:06:24;21.90;64.10
45044;DHT22;30784;48.490;9.688;2023-06-22T02:09:02;21.90;64.00
45044;DHT22;30784;48.490;9.688;2023-06-22T02:11:28;21.90;64.10
45044;DHT22;30784;48.490;9.688;2023-06-22T02:13:57;21.90;64.10
45044;DHT22;30784;48.490;9.688;2023-06-22T02:16:22;21.90;64.10
45044;DHT22;30784;48.490;9.688;2023-06-22T02:18:51;21.90;64.00
45044;DHT22;30784;48.490;9.688;2023-06-22T02:21:18;22.00;64.10
45044;DHT22;30784;48.490;9.688;2023-06-22T02:23:43;22.00;64.10
45044;DHT22;30784;48.490;9.688;2023-06-22T02:26:09;21.90;63.90
45044;DHT22;30784;48.490;9.688;2023-06-22T02:28:35;22.00;64.00
45044;DHT22;30784;48.490;9.688;2023-06-22T02:31:01;22.00;64.10
45044;DHT22;30784;48.490;9.688;2023-06-22T02:33:26;22.00;63.80
45044;DHT22;30784;48.490;9.688;2023-06-22T02:35:52;22.00;63.90
45044;DHT22;30784;48.490;9.688;2023-06-22T02:38:18;22.00;63.80
45044;DHT22;30784;48.490;9.688;2023-06-22T02:40:44;22.00;63.80
45044;DHT22;30784;48.490;9.688;2023-06-22T02:43:10;21.90;63.70
45044;DHT22;30784;48.490;9.688;2023-06-22T02:45:35;21.90;63.70
45044;DHT22;30784;48.490;9.688;2023-06-22T02:48:01;21.90;63.70
45044;DHT22;30784;48.490;9.688;2023-06-22T02:50:26;21.90;63.70
45044;DHT22;30784;48.490;9.688;2023-06-22T02:52:52;21.90;63.80
45044;DHT22;30784;48.490;9.688;2023-06-22T02:55:18;21.80;63.70
45044;DHT22;30784;48.490;9.688;2023-06-22T02:57:43;21.80;63.80
45044;DHT22;30784;48.490;9.688;2023-06-22T03:00:12;21.70;63.80
45044;DHT22;30784;48.490;9.688;2023-06-22T03:02:44;21.70;63.90
45044;DHT22;30784;48.490;9.688;2023-06-22T03:05:10;21.70;63.90
45044;DHT22;30784;48.490;9.688;2023-06-22T03:07:42;21.70;63.90
45044;DHT22;30784;48.490;9.688;2023-06-22T03:10:09;21.70;63.90
45044;DHT22;30784;48.490;9.688;2023-06-22T03:12:36;21.70;63.90
45044;DHT22;30784;48.490;9.688;2023-06-22T03:15:04;21.70;63.90
45044;DHT22;30784;48.490;9.688;2023-06-22T03:17:29;21.70;63.90
45044;DHT22;30784;48.490;9.688;2023-06-22T03:19:55;21.70;63.90
45044;DHT22;30784;48.490;9.688;2023-06-22T03:22:20;21.70;63.90
45044;DHT22;30784;48.490;9.688;2023-06-22T03:24:46;21.70;64.00
45044;DHT22;30784;48.490;9.688;2023-06-22T03:27:11;21.70;63.90
45044;DHT22;30784;48.490;9.688;2023-06-22T03:29:37;21.70;63.90
45044;DHT22;30784;48.490;9.688;2023-06-22T03:32:03;21.70;63.80
45044;DHT22;30784;48.490;9.688;2023-06-22T03:34:30;21.70;63.70
45044;DHT22;30784;48.490;9.688;2023-06-22T03:36:58;21.70;63.70
45044;DHT22;30784;48.490;9.688;2023-06-22T03:39:24;21.70;63.60
45044;DHT22;30784;48.490;9.688;2023-06-22T03:41:50;21.70;63.70
45044;DHT22;30784;48.490;9.688;2023-06-22T03:44:15;21.60;63.60
45044;DHT22;30784;48.490;9.688;2023-06-22T03:46:41;21.60;63.60
45044;DHT22;30784;48.490;9.688;2023-06-22T03:49:06;21.60;63.60
45044;DHT22;30784;48.490;9.688;2023-06-22T03:51:32;21.60;63.60
45044;DHT22;30784;48.490;9.688;2023-06-22T03:53:58;21.50;63.60
45044;DHT22;30784;48.490;9.688;2023-06-22T03:56:23;21.60;63.80
45044;DHT22;30784;48.490;9.688;2023-06-22T03:58:49;21.50;63.80
45044;DHT22;30784;48.490;9.688;2023-06-22T04:01:15;21.40;63.80
45044;DHT22;30784;48.490;9.688;2023-06-22T04:03:42;21.40;63.90
45044;DHT22;30784;48.490;9.688;2023-06-22T04:06:08;21.40;64.00
45044;DHT22;30784;48.490;9.688;2023-06-22T04:08:34;21.40;64.00
45044;DHT22;30784;48.490;9.688;2023-06-22T04:10:59;21.30;64.00
45044;DHT22;30784;48.490;9.688;2023-06-22T04:13:25;21.30;64.10
45044;DHT22;30784;48.490;9.688;2023-06-22T04:15:50;21.30;64.10
45044;DHT22;30784;48.490;9.688;2023-06-22T04:18:16;21.30;64.20
45044;DHT22;30784;48.490;9.688;2023-06-22T04:20:41;21.20;64.20
45044;DHT22;30784;48.490;9.688;2023-06-22T04:23:07;21.20;64.30
45044;DHT22;30784;48.490;9.688;2023-06-22T04:25:33;21.30;64.50
45044;DHT22;30784;48.490;9.688;2023-06-22T04:27:58;21.20;64.60
45044;DHT22;30784;48.490;9.688;2023-06-22T04:30:24;21.20;64.70
45044;DHT22;30784;48.490;9.688;2023-06-22T04:32:50;21.20;64.90
45044;DHT22;30784;48.490;9.688;2023-06-22T04:35:25;21.20;65.00
45044;DHT22;30784;48.490;9.688;2023-06-22T04:37:51;21.20;65.20
45044;DHT22;30784;48.490;9.688;2023-06-22T04:40:23;21.20;65.10
45044;DHT22;30784;48.490;9.688;2023-06-22T04:42:49;21.20;65.30
45044;DHT22;30784;48.490;9.688;2023-06-22T04:45:20;21.20;65.30
45044;DHT22;30784;48.490;9.688;2023-06-22T04:47:46;21.20;65.40
45044;DHT22;30784;48.490;9.688;2023-06-22T04:50:12;21.20;65.40
45044;DHT22;30784;48.490;9.688;2023-06-22T04:52:38;21.30;65.50
45044;DHT22;30784;48.490;9.688;2023-06-22T04:55:04;21.30;65.50
45044;DHT22;30784;48.490;9.688;2023-06-22T04:57:30;21.30;65.60
45044;DHT22;30784;48.490;9.688;2023-06-22T04:59:59;21.30;65.50
45044;DHT22;30784;48.490;9.688;2023-06-22T05:02:37;21.40;65.40
45044;DHT22;30784;48.490;9.688;2023-06-22T05:05:03;21.40;65.50
45044;DHT22;30784;48.490;9.688;2023-06-22T05:07:35;21.40;65.50
45044;DHT22;30784;48.490;9.688;2023-06-22T05:10:02;21.40;65.40
45044;DHT22;30784;48.490;9.688;2023-06-22T05:12:28;21.50;65.40
45044;DHT22;30784;48.490;9.688;2023-06-22T05:14:54;21.50;65.40
45044;DHT22;30784;48.490;9.688;2023-06-22T05:17:20;21.50;65.30
45044;DHT22;30784;48.490;9.688;2023-06-22T05:19:46;21.60;65.20
45044;DHT22;30784;48.490;9.688;2023-06-22T05:22:15;21.70;65.20
45044;DHT22;30784;48.490;9.688;2023-06-22T05:24:41;21.70;65.10
45044;DHT22;30784;48.490;9.688;2023-06-22T05:27:07;21.80;65.00
45044;DHT22;30784;48.490;9.688;2023-06-22T05:29:32;21.80;64.90
45044;DHT22;30784;48.490;9.688;2023-06-22T05:31:58;21.90;64.70
45044;DHT22;30784;48.490;9.688;2023-06-22T05:34:24;22.00;64.60
45044;DHT22;30784;48.490;9.688;2023-06-22T05:36:49;22.00;64.30
45044;DHT22;30784;48.490;9.688;2023-06-22T05:39:15;22.10;64.10
45044;DHT22;30784;48.490;9.688;2023-06-22T05:41:40;22.10;63.80
45044;DHT22;30784;48.490;9.688;2023-06-22T05:44:06;22.10;63.50
45044;DHT22;30784;48.490;9.688;2023-06-22T05:46:32;22.20;63.50
45044;DHT22;30784;48.490;9.688;2023-06-22T05:48:58;22.20;63.60
45044;DHT22;30784;48.490;9.688;2023-06-22T05:51:23;22.20;63.50
45044;DHT22;30784;48.490;9.688;2023-06-22T05:53:49;22.20;63.70
45044;DHT22;30784;48.490;9.688;2023-06-22T05:56:18;22.20;63.70
45044;DHT22;30784;48.490;9.688;2023-06-22T05:58:43;22.30;63.80
45044;DHT22;30784;48.490;9.688;2023-06-22T06:01:09;22.30;63.50
45044;DHT22;30784;48.490;9.688;2023-06-22T06:03:35;22.30;63.40
45044;DHT22;30784;48.490;9.688;2023-06-22T06:06:07;22.40;63.40
45044;DHT22;30784;48.490;9.688;2023-06-22T06:08:32;22.50;63.30
45044;DHT22;30784;48.490;9.688;2023-06-22T06:10:58;22.50;63.20
45044;DHT22;30784;48.490;9.688;2023-06-22T06:13:24;22.60;63.30
45044;DHT22;30784;48.490;9.688;2023-06-22T06:15:49;22.70;63.20
45044;DHT22;30784;48.490;9.688;2023-06-22T06:18:17;22.80;62.60
45044;DHT22;30784;48.490;9.688;2023-06-22T06:20:42;22.90;62.50
45044;DHT22;30784;48.490;9.688;2023-06-22T06:23:08;23.00;62.50
45044;DHT22;30784;48.490;9.688;2023-06-22T06:25:33;23.00;62.30
45044;DHT22;30784;48.490;9.688;2023-06-22T06:27:59;23.10;62.20
45044;DHT22;30784;48.490;9.688;2023-06-22T06:30:25;23.20;62.00
45044;DHT22;30784;48.490;9.688;2023-06-22T06:32:50;23.20;61.70
45044;DHT22;30784;48.490;9.688;2023-06-22T06:35:16;23.30;61.70
45044;DHT22;30784;48.490;9.688;2023-06-22T06:37:44;23.30;61.50
45044;DHT22;30784;48.490;9.688;2023-06-22T06:40:11;23.40;61.50
45044;DHT22;30784;48.490;9.688;2023-06-22T06:42:38;23.50;61.70
45044;DHT22;30784;48.490;9.688;2023-06-22T06:45:06;23.50;61.50
45044;DHT22;30784;48.490;9.688;2023-06-22T06:47:32;23.60;61.50
45044;DHT22;30784;48.490;9.688;2023-06-22T06:49:57;23.70;61.60
45044;DHT22;30784;48.490;9.688;2023-06-22T06:52:23;23.80;61.60
45044;DHT22;30784;48.490;9.688;2023-06-22T06:54:48;23.80;61.40
45044;DHT22;30784;48.490;9.688;2023-06-22T06:57:14;23.90;61.30
45044;DHT22;30784;48.490;9.688;2023-06-22T06:59:40;24.00;61.20
45044;DHT22;30784;48.490;9.688;2023-06-22T07:02:06;24.00;61.00
45044;DHT22;30784;48.490;9.688;2023-06-22T07:04:33;24.10;60.90
45044;DHT22;30784;48.490;9.688;2023-06-22T07:07:00;24.10;60.50
45044;DHT22;30784;48.490;9.688;2023-06-22T07:09:26;24.20;60.60
45044;DHT22;30784;48.490;9.688;2023-06-22T07:11:52;24.20;60.30
45044;DHT22;30784;48.490;9.688;2023-06-22T07:14:17;24.30;60.10
45044;DHT22;30784;48.490;9.688;2023-06-22T07:16:43;24.30;59.90
45044;DHT22;30784;48.490;9.688;2023-06-22T07:19:10;24.30;60.20
45044;DHT22;30784;48.490;9.688;2023-06-22T07:21:36;24.40;59.90
45044;DHT22;30784;48.490;9.688;2023-06-22T07:24:02;24.50;60.30
45044;DHT22;30784;48.490;9.688;2023-06-22T07:26:27;24.50;59.80
45044;DHT22;30784;48.490;9.688;2023-06-22T07:28:53;24.50;59.80
45044;DHT22;30784;48.490;9.688;2023-06-22T07:31:18;24.60;59.80
45044;DHT22;30784;48.490;9.688;2023-06-22T07:33:44;24.60;59.90
45044;DHT22;30784;48.490;9.688;2023-06-22T07:36:09;24.60;59.90
45044;DHT22;30784;48.490;9.688;2023-06-22T07:38:35;24.70;59.90
45044;DHT22;30784;48.490;9.688;2023-06-22T07:41:01;24.80;59.80
45044;DHT22;30784;48.490;9.688;2023-06-22T07:43:26;24.80;59.80
45044;DHT22;30784;48.490;9.688;2023-06-22T07:45:52;24.90;59.70
45044;DHT22;30784;48.490;9.688;2023-06-22T07:48:21;25.00;59.60
45044;DHT22;30784;48.490;9.688;2023-06-22T07:50:47;25.10;59.30
45044;DHT22;30784;48.490;9.688;2023-06-22T07:53:13;25.20;59.30
45044;DHT22;30784;48.490;9.688;2023-06-22T07:55:38;25.20;58.60
45044;DHT22;30784;48.490;9.688;2023-06-22T07:58:04;25.30;58.70
45044;DHT22;30784;48.490;9.688;2023-06-22T08:00:30;25.40;58.40
45044;DHT22;30784;48.490;9.688;2023-06-22T08:02:55;25.50;57.80
45044;DHT22;30784;48.490;9.688;2023-06-22T08:05:21;25.50;57.60
45044;DHT22;30784;48.490;9.688;2023-06-22T08:07:47;25.60;57.30
45044;DHT22;30784;48.490;9.688;2023-06-22T08:10:13;25.60;57.00
45044;DHT22;30784;48.490;9.688;2023-06-22T08:12:39;25.70;57.20
45044;DHT22;30784;48.490;9.688;2023-06-22T08:15:06;25.70;57.20
45044;DHT22;30784;48.490;9.688;2023-06-22T08:17:32;25.80;57.00
45044;DHT22;30784;48.490;9.688;2023-06-22T08:19:58;25.80;57.00
45044;DHT22;30784;48.490;9.688;2023-06-22T08:22:25;25.90;57.60
45044;DHT22;30784;48.490;9.688;2023-06-22T08:24:50;26.00;57.00
45044;DHT22;30784;48.490;9.688;2023-06-22T08:27:16;26.10;57.20
45044;DHT22;30784;48.490;9.688;2023-06-22T08:29:43;26.20;57.00
45044;DHT22;30784;48.490;9.688;2023-06-22T08:32:11;26.30;57.10
45044;DHT22;30784;48.490;9.688;2023-06-22T08:34:37;26.30;57.30
45044;DHT22;30784;48.490;9.688;2023-06-22T08:37:02;26.40;56.90
45044;DHT22;30784;48.490;9.688;2023-06-22T08:39:32;26.50;57.00
45044;DHT22;30784;48.490;9.688;2023-06-22T08:41:57;26.60;57.00
45044;DHT22;30784;48.490;9.688;2023-06-22T08:44:23;26.70;56.90
45044;DHT22;30784;48.490;9.688;2023-06-22T08:46:48;26.80;56.60
45044;DHT22;30784;48.490;9.688;2023-06-22T08:49:14;26.80;56.80
45044;DHT22;30784;48.490;9.688;2023-06-22T08:51:40;26.90;56.20
45044;DHT22;30784;48.490;9.688;2023-06-22T08:54:05;27.00;56.20
45044;DHT22;30784;48.490;9.688;2023-06-22T08:56:31;27.00;56.30
45044;DHT22;30784;48.490;9.688;2023-06-22T08:58:57;27.10;56.50
45044;DHT22;30784;48.490;9.688;2023-06-22T09:01:23;27.20;56.00
45044;DHT22;30784;48.490;9.688;2023-06-22T09:03:48;27.30;55.40
45044;DHT22;30784;48.490;9.688;2023-06-22T09:06:21;27.40;55.30
45044;DHT22;30784;48.490;9.688;2023-06-22T09:08:47;27.50;54.90
45044;DHT22;30784;48.490;9.688;2023-06-22T09:11:13;27.60;55.20
45044;DHT22;30784;48.490;9.688;2023-06-22T09:13:38;27.70;55.20
45044;DHT22;30784;48.490;9.688;2023-06-22T09:16:04;27.80;54.50
45044;DHT22;30784;48.490;9.688;2023-06-22T09:18:29;28.00;54.40
45044;DHT22;30784;48.490;9.688;2023-06-22T09:20:55;28.10;54.60
45044;DHT22;30784;48.490;9.688;2023-06-22T09:23:21;28.30;54.50
45044;DHT22;30784;48.490;9.688;2023-06-22T09:25:46;28.40;54.60
45044;DHT22;30784;48.490;9.688;2023-06-22T09:28:16;28.60;54.50
45044;DHT22;30784;48.490;9.688;2023-06-22T09:30:43;28.80;54.20
45044;DHT22;30784;48.490;9.688;2023-06-22T09:33:10;29.00;53.80
45044;DHT22;30784;48.490;9.688;2023-06-22T09:35:35;29.30;53.70
45044;DHT22;30784;48.490;9.688;2023-06-22T09:40:27;29.70;52.10
45044;DHT22;30784;48.490;9.688;2023-06-22T09:42:52;29.90;52.30
45044;DHT22;30784;48.490;9.688;2023-06-22T09:45:18;30.10;51.80
45044;DHT22;30784;48.490;9.688;2023-06-22T09:47:43;30.30;51.50
45044;DHT22;30784;48.490;9.688;2023-06-22T09:50:09;30.50;51.10
45044;DHT22;30784;48.490;9.688;2023-06-22T09:52:35;30.70;50.30
45044;DHT22;30784;48.490;9.688;2023-06-22T09:55:00;30.90;49.90
45044;DHT22;30784;48.490;9.688;2023-06-22T09:57:26;31.10;50.20
45044;DHT22;30784;48.490;9.688;2023-06-22T09:59:52;31.30;49.90
45044;DHT22;30784;48.490;9.688;2023-06-22T10:02:17;31.50;49.50
45044;DHT22;30784;48.490;9.688;2023-06-22T10:04:43;31.70;48.70
45044;DHT22;30784;48.490;9.688;2023-06-22T10:07:08;31.80;48.30
45044;DHT22;30784;48.490;9.688;2023-06-22T10:09:34;32.00;48.40
45044;DHT22;30784;48.490;9.688;2023-06-22T10:11:59;32.20;47.80
45044;DHT22;30784;48.490;9.688;2023-06-22T10:14:25;32.40;47.70
45044;DHT22;30784;48.490;9.688;2023-06-22T10:16:52;32.60;47.00
45044;DHT22;30784;48.490;9.688;2023-06-22T10:19:18;32.80;46.20
45044;DHT22;30784;48.490;9.688;2023-06-22T10:21:43;33.00;45.90
45044;DHT22;30784;48.490;9.688;2023-06-22T10:24:09;33.20;45.60
45044;DHT22;30784;48.490;9.688;2023-06-22T10:26:35;33.30;44.80
45044;DHT22;30784;48.490;9.688;2023-06-22T10:29:02;33.30;44.80
45044;DHT22;30784;48.490;9.688;2023-06-22T10:31:28;33.50;45.20
45044;DHT22;30784;48.490;9.688;2023-06-22T10:33:54;33.60;44.30
45044;DHT22;30784;48.490;9.688;2023-06-22T10:36:21;33.70;43.30
45044;DHT22;30784;48.490;9.688;2023-06-22T10:38:47;33.80;43.30
45044;DHT22;30784;48.490;9.688;2023-06-22T10:41:13;33.80;42.80
45044;DHT22;30784;48.490;9.688;2023-06-22T10:43:39;33.90;43.30
45044;DHT22;30784;48.490;9.688;2023-06-22T10:46:06;34.10;42.30
45044;DHT22;30784;48.490;9.688;2023-06-22T10:48:32;34.20;41.80
45044;DHT22;30784;48.490;9.688;2023-06-22T10:50:57;34.30;42.20
45044;DHT22;30784;48.490;9.688;2023-06-22T10:53:23;34.30;41.50
45044;DHT22;30784;48.490;9.688;2023-06-22T10:55:48;34.40;41.40
45044;DHT22;30784;48.490;9.688;2023-06-22T10:58:14;34.50;41.20
45044;DHT22;30784;48.490;9.688;2023-06-22T11:00:40;34.60;40.50
45044;DHT22;30784;48.490;9.688;2023-06-22T11:03:05;34.60;40.30
45044;DHT22;30784;48.490;9.688;2023-06-22T11:05:31;34.60;40.40
45044;DHT22;30784;48.490;9.688;2023-06-22T11:07:57;34.60;39.80
45044;DHT22;30784;48.490;9.688;2023-06-22T11:10:23;34.60;39.10
45044;DHT22;30784;48.490;9.688;2023-06-22T11:12:49;34.60;39.10
45044;DHT22;30784;48.490;9.688;2023-06-22T11:15:14;34.60;38.70
45044;DHT22;30784;48.490;9.688;2023-06-22T11:17:40;34.70;39.50
45044;DHT22;30784;48.490;9.688;2023-06-22T11:20:06;34.70;39.10
45044;DHT22;30784;48.490;9.688;2023-06-22T11:22:37;34.70;39.00
45044;DHT22;30784;48.490;9.688;2023-06-22T11:25:03;34.70;38.80
45044;DHT22;30784;48.490;9.688;2023-06-22T11:27:29;34.70;38.70
45044;DHT22;30784;48.490;9.688;2023-06-22T11:29:55;34.70;38.40
45044;DHT22;30784;48.490;9.688;2023-06-22T11:32:20;34.70;38.50
45044;DHT22;30784;48.490;9.688;2023-06-22T11:34:46;34.70;38.60
45044;DHT22;30784;48.490;9.688;2023-06-22T11:37:11;34.70;38.10
45044;DHT22;30784;48.490;9.688;2023-06-22T11:39:37;34.70;37.90
45044;DHT22;30784;48.490;9.688;2023-06-22T11:42:02;34.70;38.00
45044;DHT22;30784;48.490;9.688;2023-06-22T11:44:28;34.80;37.70
45044;DHT22;30784;48.490;9.688;2023-06-22T11:46:53;34.80;37.70
45044;DHT22;30784;48.490;9.688;2023-06-22T11:49:19;34.90;37.60
45044;DHT22;30784;48.490;9.688;2023-06-22T11:51:44;34.90;37.40
45044;DHT22;30784;48.490;9.688;2023-06-22T11:54:10;34.90;37.10
45044;DHT22;30784;48.490;9.688;2023-06-22T11:56:35;34.80;37.30
45044;DHT22;30784;48.490;9.688;2023-06-22T11:59:01;34.80;37.20
45044;DHT22;30784;48.490;9.688;2023-06-22T12:01:27;34.80;37.20
45044;DHT22;30784;48.490;9.688;2023-06-22T12:03:52;34.80;37.20
45044;DHT22;30784;48.490;9.688;2023-06-22T12:06:18;34.70;37.40
45044;DHT22;30784;48.490;9.688;2023-06-22T12:08:43;34.70;37.00
45044;DHT22;30784;48.490;9.688;2023-06-22T12:11:09;34.50;37.20
45044;DHT22;30784;48.490;9.688;2023-06-22T12:13:34;34.40;37.30
45044;DHT22;30784;48.490;9.688;2023-06-22T12:16:00;34.30;37.30
45044;DHT22;30784;48.490;9.688;2023-06-22T12:18:25;34.30;38.00
45044;DHT22;30784;48.490;9.688;2023-06-22T12:20:51;34.20;38.50
45044;DHT22;30784;48.490;9.688;2023-06-22T12:23:16;34.20;38.70
45044;DHT22;30784;48.490;9.688;2023-06-22T12:25:42;34.20;39.10
45044;DHT22;30784;48.490;9.688;2023-06-22T12:28:07;34.20;39.20
45044;DHT22;30784;48.490;9.688;2023-06-22T12:30:33;34.10;39.40
45044;DHT22;30784;48.490;9.688;2023-06-22T12:32:59;34.00;39.30
45044;DHT22;30784;48.490;9.688;2023-06-22T12:35:24;33.90;39.70
45044;DHT22;30784;48.490;9.688;2023-06-22T12:37:50;33.80;39.80
45044;DHT22;30784;48.490;9.688;2023-06-22T12:40:15;33.70;40.00
45044;DHT22;30784;48.490;9.688;2023-06-22T12:42:41;33.70;40.20
45044;DHT22;30784;48.490;9.688;2023-06-22T12:45:08;33.60;40.20
45044;DHT22;30784;48.490;9.688;2023-06-22T12:47:33;33.60;40.30
45044;DHT22;30784;48.490;9.688;2023-06-22T12:49:59;33.60;40.50
45044;DHT22;30784;48.490;9.688;2023-06-22T12:52:25;33.50;40.40
45044;DHT22;30784;48.490;9.688;2023-06-22T12:54:50;33.60;40.60
45044;DHT22;30784;48.490;9.688;2023-06-22T12:57:17;33.50;40.80
45044;DHT22;30784;48.490;9.688;2023-06-22T12:59:44;33.50;40.90
45044;DHT22;30784;48.490;9.688;2023-06-22T13:02:10;33.50;40.90
45044;DHT22;30784;48.490;9.688;2023-06-22T13:04:36;33.50;41.00
45044;DHT22;30784;48.490;9.688;2023-06-22T13:07:01;33.50;41.30
45044;DHT22;30784;48.490;9.688;2023-06-22T13:09:26;33.40;41.10
45044;DHT22;30784;48.490;9.688;2023-06-22T13:11:52;33.40;41.20
45044;DHT22;30784;48.490;9.688;2023-06-22T13:14:18;33.40;41.40
45044;DHT22;30784;48.490;9.688;2023-06-22T13:16:43;33.40;40.70
45044;DHT22;30784;48.490;9.688;2023-06-22T13:19:09;33.30;40.90
45044;DHT22;30784;48.490;9.688;2023-06-22T13:21:35;33.30;41.00
45044;DHT22;30784;48.490;9.688;2023-06-22T13:24:00;33.30;41.20
45044;DHT22;30784;48.490;9.688;2023-06-22T13:26:26;33.30;40.60
45044;DHT22;30784;48.490;9.688;2023-06-22T13:28:54;33.30;39.40
45044;DHT22;30784;48.490;9.688;2023-06-22T13:31:19;33.40;39.50
45044;DHT22;30784;48.490;9.688;2023-06-22T13:33:45;33.50;39.70
45044;DHT22;30784;48.490;9.688;2023-06-22T13:36:13;33.50;38.90
45044;DHT22;30784;48.490;9.688;2023-06-22T13:38:38;33.50;38.70
45044;DHT22;30784;48.490;9.688;2023-06-22T13:41:05;33.60;38.00
45044;DHT22;30784;48.490;9.688;2023-06-22T13:43:31;33.60;38.00
45044;DHT22;30784;48.490;9.688;2023-06-22T13:45:57;33.60;37.10
45044;DHT22;30784;48.490;9.688;2023-06-22T13:48:22;33.60;36.40
45044;DHT22;30784;48.490;9.688;2023-06-22T13:50:49;33.60;36.10
45044;DHT22;30784;48.490;9.688;2023-06-22T13:53:14;33.60;36.60
45044;DHT22;30784;48.490;9.688;2023-06-22T13:55:40;33.60;36.40
45044;DHT22;30784;48.490;9.688;2023-06-22T13:58:06;33.70;36.40
45044;DHT22;30784;48.490;9.688;2023-06-22T14:00:32;33.70;36.40
45044;DHT22;30784;48.490;9.688;2023-06-22T14:02:58;33.70;36.90
45044;DHT22;30784;48.490;9.688;2023-06-22T14:05:23;33.70;37.30
45044;DHT22;30784;48.490;9.688;2023-06-22T14:07:49;33.70;37.70
45044;DHT22;30784;48.490;9.688;2023-06-22T14:10:14;33.70;37.50
45044;DHT22;30784;48.490;9.688;2023-06-22T14:12:40;33.70;37.70
45044;DHT22;30784;48.490;9.688;2023-06-22T14:15:05;33.80;37.80
45044;DHT22;30784;48.490;9.688;2023-06-22T14:17:31;33.80;38.00
45044;DHT22;30784;48.490;9.688;2023-06-22T14:19:57;33.80;37.90
45044;DHT22;30784;48.490;9.688;2023-06-22T14:22:22;33.80;37.70
45044;DHT22;30784;48.490;9.688;2023-06-22T14:24:49;33.80;37.70
45044;DHT22;30784;48.490;9.688;2023-06-22T14:27:15;33.80;37.70
45044;DHT22;30784;48.490;9.688;2023-06-22T14:29:40;33.80;37.90
45044;DHT22;30784;48.490;9.688;2023-06-22T14:32:07;33.80;37.70
45044;DHT22;30784;48.490;9.688;2023-06-22T14:34:33;33.90;37.60
45044;DHT22;30784;48.490;9.688;2023-06-22T14:37:01;33.90;37.80
45044;DHT22;30784;48.490;9.688;2023-06-22T14:39:27;33.90;37.60
45044;DHT22;30784;48.490;9.688;2023-06-22T14:41:52;34.00;36.60
45044;DHT22;30784;48.490;9.688;2023-06-22T14:44:18;34.10;36.50
45044;DHT22;30784;48.490;9.688;2023-06-22T14:46:44;34.20;36.90
45044;DHT22;30784;48.490;9.688;2023-06-22T14:49:09;34.30;36.20
45044;DHT22;30784;48.490;9.688;2023-06-22T14:51:35;34.40;35.10
45044;DHT22;30784;48.490;9.688;2023-06-22T14:54:00;34.60;35.40
45044;DHT22;30784;48.490;9.688;2023-06-22T14:56:26;34.70;35.00
45044;DHT22;30784;48.490;9.688;2023-06-22T14:58:51;34.90;35.40
45044;DHT22;30784;48.490;9.688;2023-06-22T15:01:17;35.00;34.90
45044;DHT22;30784;48.490;9.688;2023-06-22T15:03:43;35.10;35.00
45044;DHT22;30784;48.490;9.688;2023-06-22T15:06:09;35.30;35.00
45044;DHT22;30784;48.490;9.688;2023-06-22T15:08:39;35.40;35.00
45044;DHT22;30784;48.490;9.688;2023-06-22T15:11:05;35.50;35.10
45044;DHT22;30784;48.490;9.688;2023-06-22T15:13:31;35.60;35.10
45044;DHT22;30784;48.490;9.688;2023-06-22T15:16:00;35.60;34.80
45044;DHT22;30784;48.490;9.688;2023-06-22T15:18:26;35.70;34.60
45044;DHT22;30784;48.490;9.688;2023-06-22T15:20:52;35.80;34.60
45044;DHT22;30784;48.490;9.688;2023-06-22T15:23:18;35.90;34.70
45044;DHT22;30784;48.490;9.688;2023-06-22T15:25:44;35.90;34.80
45044;DHT22;30784;48.490;9.688;2023-06-22T15:28:11;36.00;34.80
45044;DHT22;30784;48.490;9.688;2023-06-22T15:30:36;36.00;34.60
45044;DHT22;30784;48.490;9.688;2023-06-22T15:33:02;36.00;34.70
45044;DHT22;30784;48.490;9.688;2023-06-22T15:35:28;35.90;34.50
45044;DHT22;30784;48.490;9.688;2023-06-22T15:37:53;35.90;34.20
45044;DHT22;30784;48.490;9.688;2023-06-22T15:40:19;35.80;34.20